createdAt,value
2023-03-15T00:02:10.840Z,2.75
2023-03-15T00:04:38.568Z,2.76
2023-03-15T00:07:10.504Z,2.82
2023-03-15T00:09:38.225Z,2.81
2023-03-15T00:12:06.828Z,2.80
2023-03-15T00:14:34.557Z,2.86
2023-03-15T00:17:02.371Z,2.89
2023-03-15T00:19:30.148Z,2.88
2023-03-15T00:21:57.881Z,2.80
2023-03-15T00:24:27.012Z,2.79
2023-03-15T00:26:54.776Z,2.89
2023-03-15T00:29:22.499Z,2.98
2023-03-15T00:31:51.660Z,3.03
2023-03-15T00:34:23.822Z,3.04
2023-03-15T00:36:53.632Z,3.04
2023-03-15T00:39:21.458Z,3.11
2023-03-15T00:41:50.515Z,3.16
2023-03-15T00:44:18.378Z,3.22
2023-03-15T00:46:46.151Z,3.25
2023-03-15T00:49:13.931Z,3.29
2023-03-15T00:51:41.680Z,3.15
2023-03-15T00:54:13.712Z,3.19
2023-03-15T00:56:41.938Z,3.18
2023-03-15T00:59:11.040Z,3.13
2023-03-15T01:01:41.165Z,3.13
2023-03-15T01:04:08.922Z,3.13
2023-03-15T01:06:36.670Z,3.11
2023-03-15T01:09:05.765Z,3.09
2023-03-15T01:11:33.542Z,3.18
2023-03-15T01:14:01.319Z,3.23
2023-03-15T01:16:30.876Z,3.25
2023-03-15T01:18:58.799Z,3.27
2023-03-15T01:21:26.491Z,3.26
2023-03-15T01:23:55.106Z,3.26
2023-03-15T01:26:23.407Z,3.25
2023-03-15T01:28:51.393Z,3.23
2023-03-15T01:31:22.828Z,3.21
2023-03-15T01:33:52.444Z,3.18
2023-03-15T01:36:20.434Z,3.18
2023-03-15T01:38:49.524Z,3.16
2023-03-15T01:41:19.295Z,3.17
2023-03-15T01:43:48.640Z,3.16
2023-03-15T01:46:24.663Z,3.14
2023-03-15T01:48:58.161Z,3.12
2023-03-15T01:51:34.227Z,3.10
2023-03-15T01:54:05.674Z,3.05
2023-03-15T01:56:35.871Z,3.04
2023-03-15T01:59:07.019Z,3.02
2023-03-15T02:01:37.846Z,3.00
2023-03-15T02:04:11.293Z,2.98
2023-03-15T02:06:39.611Z,2.95
2023-03-15T02:09:14.194Z,2.93
2023-03-15T02:11:43.474Z,2.92
2023-03-15T02:14:13.603Z,2.90
2023-03-15T02:16:41.476Z,2.88
2023-03-15T02:19:19.655Z,2.89
2023-03-15T02:21:59.100Z,2.87
2023-03-15T02:24:35.086Z,2.86
2023-03-15T02:27:03.640Z,2.86
2023-03-15T02:29:33.300Z,2.87
2023-03-15T02:32:04.476Z,2.84
2023-03-15T02:34:32.320Z,2.83
2023-03-15T02:37:00.101Z,2.81
2023-03-15T02:39:27.807Z,2.79
2023-03-15T02:41:58.287Z,2.76
2023-03-15T02:44:31.572Z,2.77
2023-03-15T02:47:05.418Z,2.73
2023-03-15T02:49:36.543Z,2.72
2023-03-15T02:52:04.749Z,2.72
2023-03-15T02:54:34.438Z,2.71
2023-03-15T02:57:02.242Z,2.70
2023-03-15T02:59:31.038Z,2.69
2023-03-15T03:01:58.864Z,2.65
2023-03-15T03:04:27.948Z,2.66
2023-03-15T03:06:55.750Z,2.62
2023-03-15T03:09:24.267Z,2.60
2023-03-15T03:11:52.108Z,2.60
2023-03-15T03:14:19.826Z,2.58
2023-03-15T03:16:48.360Z,2.54
2023-03-15T03:19:16.100Z,2.52
2023-03-15T03:21:45.426Z,2.47
2023-03-15T03:24:16.037Z,2.45
2023-03-15T03:26:46.234Z,2.44
2023-03-15T03:29:16.743Z,2.44
2023-03-15T03:31:45.197Z,2.41
2023-03-15T03:34:15.600Z,2.40
2023-03-15T03:36:45.221Z,2.38
2023-03-15T03:39:13.085Z,2.38
2023-03-15T03:41:41.165Z,2.38
2023-03-15T03:44:08.901Z,2.35
2023-03-15T03:46:36.655Z,2.35
2023-03-15T03:49:04.462Z,2.35
2023-03-15T03:51:34.081Z,2.35
2023-03-15T03:54:03.441Z,2.35
2023-03-15T03:56:31.298Z,2.35
2023-03-15T03:58:59.035Z,2.37
2023-03-15T04:01:26.822Z,2.35
2023-03-15T04:03:54.726Z,2.19
2023-03-15T04:06:23.491Z,2.18
2023-03-15T04:08:51.293Z,2.17
2023-03-15T04:11:20.426Z,2.13
2023-03-15T04:13:49.383Z,2.11
2023-03-15T04:16:17.396Z,1.97
2023-03-15T04:18:45.191Z,1.98
2023-03-15T04:21:12.927Z,2.00
2023-03-15T04:23:40.766Z,1.95
2023-03-15T04:26:08.510Z,1.97
2023-03-15T04:28:38.932Z,1.98
2023-03-15T04:31:10.585Z,1.97
2023-03-15T04:33:38.450Z,1.95
2023-03-15T04:36:06.631Z,1.98
2023-03-15T04:38:35.595Z,2.02
2023-03-15T04:41:10.787Z,1.97
2023-03-15T04:43:40.288Z,1.97
2023-03-15T04:46:08.294Z,1.98
2023-03-15T04:48:36.562Z,2.02
2023-03-15T04:51:04.458Z,2.05
2023-03-15T04:53:32.187Z,2.08
2023-03-15T04:55:59.998Z,2.12
2023-03-15T04:58:27.734Z,2.16
2023-03-15T05:00:56.856Z,2.19
2023-03-15T05:03:26.212Z,2.11
2023-03-15T05:05:53.976Z,2.09
2023-03-15T05:08:21.685Z,2.12
2023-03-15T05:10:49.400Z,2.14
2023-03-15T05:13:18.904Z,2.15
2023-03-15T05:15:46.649Z,2.17
2023-03-15T05:18:15.725Z,2.17
2023-03-15T05:20:43.410Z,2.18
2023-03-15T05:23:11.192Z,2.20
2023-03-15T05:25:38.934Z,2.20
2023-03-15T05:28:07.236Z,2.21
2023-03-15T05:30:35.049Z,2.21
2023-03-15T05:33:04.762Z,2.21
2023-03-15T05:35:33.865Z,2.16
2023-03-15T05:38:01.625Z,2.14
2023-03-15T05:40:30.469Z,2.15
2023-03-15T05:42:58.258Z,2.16
2023-03-15T05:45:26.032Z,2.17
2023-03-15T05:47:53.741Z,2.17
2023-03-15T05:50:22.009Z,2.18
2023-03-15T05:52:53.679Z,2.18
2023-03-15T05:55:22.044Z,2.20
2023-03-15T05:57:49.904Z,2.22
2023-03-15T06:00:18.899Z,2.22
2023-03-15T06:02:47.869Z,2.24
2023-03-15T06:05:15.874Z,2.26
2023-03-15T06:07:43.604Z,2.27
2023-03-15T06:10:14.084Z,2.28
2023-03-15T06:12:41.903Z,2.18
2023-03-15T06:15:10.850Z,2.17
2023-03-15T06:17:38.646Z,2.16
2023-03-15T06:20:07.435Z,2.16
2023-03-15T06:22:35.302Z,2.12
2023-03-15T06:25:03.676Z,2.08
2023-03-15T06:27:33.246Z,2.01
2023-03-15T06:30:01.001Z,2.03
2023-03-15T06:32:28.903Z,2.06
2023-03-15T06:34:56.798Z,2.02
2023-03-15T06:37:34.657Z,2.09
2023-03-15T06:40:05.978Z,2.11
2023-03-15T06:42:35.715Z,2.11
2023-03-15T06:45:03.552Z,2.10
2023-03-15T06:47:31.314Z,2.12
2023-03-15T06:49:59.289Z,2.12
2023-03-15T06:52:27.456Z,2.08
2023-03-15T06:54:55.287Z,2.10
2023-03-15T06:57:23.150Z,2.07
2023-03-15T06:59:54.010Z,2.07
2023-03-15T07:02:22.205Z,2.09
2023-03-15T07:04:50.454Z,2.11
2023-03-15T07:07:18.190Z,2.12
2023-03-15T07:09:48.366Z,2.11
2023-03-15T07:12:16.074Z,2.14
2023-03-15T07:14:43.782Z,2.16
2023-03-15T07:17:12.941Z,2.18
2023-03-15T07:19:50.119Z,2.22
2023-03-15T07:22:22.955Z,2.27
2023-03-15T07:24:51.278Z,2.32
2023-03-15T07:27:19.614Z,2.35
2023-03-15T07:29:47.517Z,2.43
2023-03-15T07:32:16.872Z,2.48
2023-03-15T07:34:44.909Z,2.55
2023-03-15T07:37:12.813Z,2.64
2023-03-15T07:39:41.321Z,2.62
2023-03-15T07:42:09.607Z,2.70
2023-03-15T07:44:37.384Z,2.82
2023-03-15T07:47:05.548Z,2.94
2023-03-15T07:49:35.325Z,3.08
2023-03-15T07:52:03.579Z,3.18
2023-03-15T07:54:31.984Z,3.31
2023-03-15T07:56:59.819Z,3.38
2023-03-15T07:59:27.600Z,3.50
2023-03-15T08:01:55.645Z,3.58
2023-03-15T08:04:23.442Z,3.70
2023-03-15T08:06:53.909Z,3.81
2023-03-15T08:09:21.620Z,3.92
2023-03-15T08:11:49.408Z,4.04
2023-03-15T08:14:17.207Z,4.14
2023-03-15T08:16:45.109Z,4.26
2023-03-15T08:19:12.941Z,4.38
2023-03-15T08:21:45.419Z,4.49
2023-03-15T08:24:15.403Z,4.58
2023-03-15T08:26:45.565Z,4.60
2023-03-15T08:29:13.314Z,4.66
2023-03-15T08:31:41.572Z,4.75
2023-03-15T08:34:09.360Z,4.87
2023-03-15T08:36:37.137Z,4.92
2023-03-15T08:39:05.606Z,5.04
2023-03-15T08:41:34.936Z,5.10
2023-03-15T08:44:03.813Z,5.19
2023-03-15T08:46:33.020Z,5.29
2023-03-15T08:49:01.172Z,5.40
2023-03-15T08:51:30.864Z,5.21
2023-03-15T08:53:58.580Z,5.14
2023-03-15T08:56:26.326Z,5.37
2023-03-15T08:58:55.427Z,5.52
2023-03-15T09:01:23.136Z,5.62
2023-03-15T09:03:51.631Z,5.45
2023-03-15T09:06:19.392Z,5.59
2023-03-15T09:08:47.144Z,5.79
2023-03-15T09:11:15.220Z,5.95
2023-03-15T09:13:43.065Z,6.07
2023-03-15T09:16:12.262Z,6.15
2023-03-15T09:18:40.761Z,6.24
2023-03-15T09:21:08.587Z,6.23
2023-03-15T09:23:36.315Z,6.35
2023-03-15T09:26:04.248Z,6.50
2023-03-15T09:28:32.006Z,6.51
2023-03-15T09:31:00.227Z,6.60
2023-03-15T09:33:29.484Z,6.77
2023-03-15T09:35:57.290Z,6.67
2023-03-15T09:38:25.059Z,6.77
2023-03-15T09:40:58.671Z,6.90
2023-03-15T09:43:44.659Z,6.94
2023-03-15T09:46:30.610Z,7.08
2023-03-15T09:49:06.117Z,7.18
2023-03-15T09:51:40.624Z,7.27
2023-03-15T09:54:13.179Z,7.41
2023-03-15T09:56:47.228Z,7.45
2023-03-15T09:59:17.720Z,7.59
2023-03-15T10:01:46.667Z,7.67
2023-03-15T10:04:25.558Z,7.57
2023-03-15T10:06:57.085Z,7.71
2023-03-15T10:09:29.315Z,7.91
2023-03-15T10:12:06.461Z,7.97
2023-03-15T10:14:53.670Z,8.06
2023-03-15T10:17:33.544Z,8.18
2023-03-15T10:20:09.619Z,8.22
2023-03-15T10:22:43.905Z,8.27
2023-03-15T10:25:17.878Z,8.30
2023-03-15T10:27:51.422Z,8.25
2023-03-15T10:30:22.517Z,8.26
2023-03-15T10:32:54.286Z,8.32
2023-03-15T10:35:23.579Z,8.34
2023-03-15T10:37:51.368Z,8.33
2023-03-15T10:40:40.276Z,8.30
2023-03-15T10:43:15.595Z,8.06
2023-03-15T10:45:43.346Z,8.15
2023-03-15T10:48:11.221Z,8.27
2023-03-15T10:50:41.215Z,8.43
2023-03-15T10:53:20.594Z,8.54
2023-03-15T10:55:49.758Z,8.69
2023-03-15T10:58:27.529Z,8.81
2023-03-15T11:01:02.297Z,8.83
2023-03-15T11:03:31.245Z,8.87
2023-03-15T11:06:00.582Z,8.96
2023-03-15T11:08:38.943Z,9.09
2023-03-15T11:11:07.812Z,9.20
2023-03-15T11:13:36.878Z,9.21
2023-03-15T11:16:07.412Z,9.32
2023-03-15T11:18:38.944Z,9.42
2023-03-15T11:21:11.712Z,9.55
2023-03-15T11:23:42.577Z,9.67
2023-03-15T11:26:29.420Z,9.73
2023-03-15T11:29:02.492Z,9.66
2023-03-15T11:31:31.277Z,9.62
2023-03-15T11:34:04.463Z,9.62
2023-03-15T11:36:38.002Z,9.67
2023-03-15T11:39:06.410Z,9.79
2023-03-15T11:41:38.089Z,9.90
2023-03-15T11:44:16.738Z,9.94
2023-03-15T11:46:49.782Z,9.98
2023-03-15T11:49:24.760Z,10.03
2023-03-15T11:51:56.832Z,10.02
2023-03-15T11:54:29.719Z,10.03
2023-03-15T11:56:58.774Z,10.03
2023-03-15T11:59:29.183Z,10.05
2023-03-15T12:01:59.490Z,10.09
2023-03-15T12:04:40.709Z,10.12
2023-03-15T12:07:29.127Z,10.16
2023-03-15T12:09:58.740Z,10.20
2023-03-15T12:12:38.659Z,10.27
2023-03-15T12:15:32.713Z,10.30
2023-03-15T12:18:06.394Z,10.35
2023-03-15T12:20:37.788Z,10.37
2023-03-15T12:23:26.906Z,10.42
2023-03-15T12:25:57.421Z,10.52
2023-03-15T12:28:29.827Z,10.56
2023-03-15T12:31:01.832Z,10.55
2023-03-15T12:34:23.810Z,10.64
2023-03-15T12:36:56.871Z,10.65
2023-03-15T12:39:42.038Z,10.67
2023-03-15T12:42:15.174Z,10.71
2023-03-15T12:44:44.229Z,10.80
2023-03-15T12:47:12.834Z,10.87
2023-03-15T12:49:42.985Z,10.90
2023-03-15T12:52:28.874Z,10.92
2023-03-15T12:55:04.820Z,10.97
2023-03-15T12:57:38.974Z,10.98
2023-03-15T13:00:14.433Z,11.03
2023-03-15T13:02:46.984Z,11.08
2023-03-15T13:05:19.432Z,11.07
2023-03-15T13:07:59.100Z,11.16
2023-03-15T13:11:11.218Z,11.23
2023-03-15T13:14:01.750Z,11.35
2023-03-15T13:16:38.013Z,11.46
2023-03-15T13:19:17.949Z,11.48
2023-03-15T13:22:01.727Z,11.44
2023-03-15T13:24:38.978Z,11.39
2023-03-15T13:27:19.524Z,11.33
2023-03-15T13:29:47.440Z,11.28
2023-03-15T13:32:18.253Z,11.32
2023-03-15T13:34:48.142Z,11.34
2023-03-15T13:37:18.851Z,11.39
2023-03-15T13:40:00.953Z,11.33
2023-03-15T13:42:30.743Z,11.31
2023-03-15T13:45:13.115Z,11.35
2023-03-15T13:47:42.370Z,11.31
2023-03-15T13:50:16.034Z,11.27
2023-03-15T13:52:44.835Z,11.27
2023-03-15T13:55:14.745Z,11.24
2023-03-15T13:57:44.303Z,11.22
2023-03-15T14:00:17.166Z,11.20
2023-03-15T14:02:49.243Z,11.19
2023-03-15T14:05:20.056Z,11.24
2023-03-15T14:07:49.669Z,11.27
2023-03-15T14:10:28.997Z,11.20
2023-03-15T14:12:59.596Z,11.22
2023-03-15T14:15:36.351Z,11.17
2023-03-15T14:18:17.070Z,11.11
2023-03-15T14:20:47.126Z,11.10
2023-03-15T14:23:18.901Z,11.05
2023-03-15T14:25:53.394Z,11.01
2023-03-15T14:28:25.548Z,10.97
2023-03-15T14:30:55.912Z,10.90
2023-03-15T14:33:34.347Z,10.90
2023-03-15T14:36:04.873Z,10.92
2023-03-15T14:38:35.610Z,10.94
2023-03-15T14:41:33.093Z,10.94
2023-03-15T14:44:03.189Z,10.88
2023-03-15T14:46:32.801Z,10.85
2023-03-15T14:49:00.923Z,10.73
2023-03-15T14:51:30.402Z,10.73
2023-03-15T14:54:00.002Z,10.74
2023-03-15T14:56:27.935Z,10.74
2023-03-15T14:58:55.714Z,10.73
2023-03-15T15:01:28.175Z,10.73
2023-03-15T15:03:59.823Z,10.73
2023-03-15T15:06:29.250Z,10.74
2023-03-15T15:08:58.792Z,10.72
2023-03-15T15:11:26.777Z,10.65
2023-03-15T15:13:54.885Z,10.61
2023-03-15T15:16:22.747Z,10.57
2023-03-15T15:18:52.107Z,10.56
2023-03-15T15:21:24.653Z,10.62
2023-03-15T15:23:58.819Z,10.63
2023-03-15T15:26:29.048Z,10.63
2023-03-15T15:28:57.549Z,10.63
2023-03-15T15:31:28.025Z,10.63
2023-03-15T15:33:58.019Z,10.61
2023-03-15T15:36:29.902Z,10.60
2023-03-15T15:39:01.202Z,10.60
2023-03-15T15:41:31.600Z,10.57
2023-03-15T15:43:59.796Z,10.54
2023-03-15T15:46:28.023Z,10.48
2023-03-15T15:48:57.219Z,10.43
2023-03-15T15:51:28.882Z,10.40
2023-03-15T15:53:58.934Z,10.40
2023-03-15T15:56:32.770Z,10.37
2023-03-15T15:59:00.999Z,10.30
2023-03-15T16:01:29.067Z,10.30
2023-03-15T16:03:58.391Z,10.27
2023-03-15T16:06:26.607Z,10.30
2023-03-15T16:08:55.869Z,10.29
2023-03-15T16:11:23.700Z,10.27
2023-03-15T16:13:54.134Z,10.24
2023-03-15T16:16:22.715Z,10.21
2023-03-15T16:18:51.032Z,10.18
2023-03-15T16:21:28.159Z,10.16
2023-03-15T16:23:59.925Z,10.10
2023-03-15T16:26:28.259Z,10.07
2023-03-15T16:28:56.522Z,10.08
2023-03-15T16:31:24.418Z,10.02
2023-03-15T16:33:52.227Z,9.96
2023-03-15T16:36:23.364Z,9.94
2023-03-15T16:38:51.163Z,9.92
2023-03-15T16:41:19.109Z,9.90
2023-03-15T16:43:49.245Z,9.88
2023-03-15T16:46:18.359Z,9.84
2023-03-15T16:48:46.254Z,9.80
2023-03-15T16:51:16.652Z,9.79
2023-03-15T16:53:46.148Z,9.77
2023-03-15T16:56:15.517Z,9.75
2023-03-15T16:58:44.504Z,9.73
2023-03-15T17:01:12.404Z,9.70
2023-03-15T17:03:40.286Z,9.70
2023-03-15T17:06:17.546Z,9.68
2023-03-15T17:08:47.234Z,9.68
2023-03-15T17:11:15.268Z,9.60
2023-03-15T17:13:43.280Z,9.54
2023-03-15T17:16:13.226Z,9.48
2023-03-15T17:18:44.666Z,9.47
2023-03-15T17:21:15.313Z,9.40
2023-03-15T17:23:44.418Z,9.38
2023-03-15T17:26:16.870Z,9.35
2023-03-15T17:28:45.349Z,9.29
2023-03-15T17:31:31.068Z,9.22
2023-03-15T17:33:59.565Z,9.15
2023-03-15T17:36:31.247Z,9.15
2023-03-15T17:38:59.696Z,9.14
2023-03-15T17:41:33.211Z,9.11
2023-03-15T17:44:01.689Z,9.07
2023-03-15T17:46:31.508Z,9.02
2023-03-15T17:49:00.623Z,8.97
2023-03-15T17:51:31.395Z,8.90
2023-03-15T17:54:00.407Z,8.85
2023-03-15T17:56:31.642Z,8.83
2023-03-15T17:59:02.132Z,8.78
2023-03-15T18:01:30.995Z,8.74
2023-03-15T18:03:59.336Z,8.71
2023-03-15T18:06:27.898Z,8.68
2023-03-15T18:08:56.010Z,8.65
2023-03-15T18:11:27.056Z,8.61
2023-03-15T18:13:57.124Z,8.57
2023-03-15T18:16:25.745Z,8.51
2023-03-15T18:18:54.131Z,8.49
2023-03-15T18:21:25.023Z,8.44
2023-03-15T18:23:53.498Z,8.39
2023-03-15T18:26:23.078Z,8.37
2023-03-15T18:28:51.597Z,8.33
2023-03-15T18:31:24.362Z,8.31
2023-03-15T18:33:53.941Z,8.27
2023-03-15T18:36:21.959Z,8.24
2023-03-15T18:38:50.125Z,8.21
2023-03-15T18:41:20.929Z,8.17
2023-03-15T18:43:51.567Z,8.12
2023-03-15T18:46:22.821Z,8.08
2023-03-15T18:48:53.463Z,8.06
2023-03-15T18:51:25.256Z,8.01
2023-03-15T18:53:53.844Z,7.97
2023-03-15T18:56:23.960Z,7.89
2023-03-15T18:58:53.167Z,7.83
2023-03-15T19:01:24.693Z,7.77
2023-03-15T19:03:53.514Z,7.74
2023-03-15T19:06:22.656Z,7.71
2023-03-15T19:08:53.552Z,7.65
2023-03-15T19:11:23.845Z,7.64
2023-03-15T19:13:51.954Z,7.61
2023-03-15T19:16:21.051Z,7.57
2023-03-15T19:18:51.036Z,7.52
2023-03-15T19:21:19.447Z,7.47
2023-03-15T19:23:47.452Z,7.43
2023-03-15T19:26:15.510Z,7.40
2023-03-15T19:28:43.672Z,7.35
2023-03-15T19:31:11.647Z,7.33
2023-03-15T19:33:39.849Z,7.29
2023-03-15T19:36:10.328Z,7.22
2023-03-15T19:38:39.071Z,7.18
2023-03-15T19:41:09.721Z,7.20
2023-03-15T19:43:42.299Z,7.17
2023-03-15T19:46:14.084Z,7.17
2023-03-15T19:48:42.561Z,7.10
2023-03-15T19:51:11.808Z,7.10
2023-03-15T19:53:39.614Z,7.04
2023-03-15T19:56:09.554Z,6.98
2023-03-15T19:58:37.435Z,6.95
2023-03-15T20:01:05.771Z,6.93
2023-03-15T20:03:34.985Z,6.86
2023-03-15T20:06:08.052Z,6.82
2023-03-15T20:08:37.198Z,6.80
2023-03-15T20:11:06.587Z,6.79
2023-03-15T20:13:35.320Z,6.75
2023-03-15T20:16:03.901Z,6.73
2023-03-15T20:18:32.390Z,6.68
2023-03-15T20:21:02.537Z,6.65
2023-03-15T20:23:30.450Z,6.63
2023-03-15T20:26:09.813Z,6.61
2023-03-15T20:28:38.011Z,6.56
2023-03-15T20:31:09.967Z,6.57
2023-03-15T20:33:37.820Z,6.54
2023-03-15T20:36:06.911Z,6.47
2023-03-15T20:38:37.147Z,6.47
2023-03-15T20:41:07.732Z,6.43
2023-03-15T20:43:35.813Z,6.41
2023-03-15T20:46:04.517Z,6.38
2023-03-15T20:48:34.837Z,6.37
2023-03-15T20:51:04.056Z,6.27
2023-03-15T20:53:33.533Z,6.35
2023-03-15T20:56:02.064Z,6.33
2023-03-15T20:58:36.641Z,6.33
2023-03-15T21:01:06.501Z,6.29
2023-03-15T21:03:38.003Z,6.25
2023-03-15T21:06:07.446Z,6.23
2023-03-15T21:08:36.425Z,6.19
2023-03-15T21:11:08.772Z,6.19
2023-03-15T21:13:38.861Z,6.17
2023-03-15T21:16:07.974Z,6.13
2023-03-15T21:18:37.842Z,6.10
2023-03-15T21:21:08.706Z,6.08
2023-03-15T21:23:40.345Z,6.05
2023-03-15T21:26:11.200Z,6.03
2023-03-15T21:28:41.737Z,6.00
2023-03-15T21:31:10.287Z,6.00
2023-03-15T21:33:38.569Z,5.95
2023-03-15T21:36:07.538Z,5.94
2023-03-15T21:38:36.580Z,5.91
2023-03-15T21:41:09.437Z,5.91
2023-03-15T21:43:38.102Z,5.87
2023-03-15T21:46:12.070Z,5.85
2023-03-15T21:48:42.662Z,5.81
2023-03-15T21:51:16.275Z,5.79
2023-03-15T21:53:46.306Z,5.75
2023-03-15T21:56:14.686Z,5.67
2023-03-15T21:58:42.878Z,5.68
2023-03-15T22:01:13.880Z,5.63
2023-03-15T22:03:42.511Z,5.60
2023-03-15T22:06:10.312Z,5.59
2023-03-15T22:08:38.058Z,5.55
2023-03-15T22:11:06.336Z,5.56
2023-03-15T22:13:34.395Z,5.47
2023-03-15T22:16:02.476Z,5.46
2023-03-15T22:18:31.765Z,5.42
2023-03-15T22:20:59.547Z,5.39
2023-03-15T22:23:27.539Z,5.36
2023-03-15T22:25:57.078Z,5.35
2023-03-15T22:28:26.133Z,5.30
2023-03-15T22:30:54.621Z,5.27
2023-03-15T22:33:23.239Z,5.25
2023-03-15T22:35:56.898Z,5.21
2023-03-15T22:38:25.863Z,5.22
2023-03-15T22:41:01.689Z,5.22
2023-03-15T22:43:29.447Z,5.19
2023-03-15T22:45:57.395Z,5.17
2023-03-15T22:48:26.088Z,5.10
2023-03-15T22:50:59.984Z,5.12
2023-03-15T22:53:27.630Z,5.11
2023-03-15T22:55:55.702Z,5.13
2023-03-15T22:58:23.815Z,5.09
2023-03-15T23:00:51.942Z,5.06
2023-03-15T23:03:20.780Z,5.08
2023-03-15T23:05:48.649Z,5.05
2023-03-15T23:08:17.856Z,5.04
2023-03-15T23:10:45.619Z,5.02
2023-03-15T23:13:13.358Z,4.98
2023-03-15T23:15:41.141Z,5.00
2023-03-15T23:18:09.597Z,5.00
2023-03-15T23:20:38.744Z,4.98
2023-03-15T23:23:07.366Z,4.93
2023-03-15T23:25:38.958Z,4.93
2023-03-15T23:28:07.275Z,4.93
2023-03-15T23:30:36.425Z,4.93
2023-03-15T23:33:08.711Z,4.93
2023-03-15T23:35:37.127Z,4.93
2023-03-15T23:38:04.939Z,4.96
2023-03-15T23:40:32.691Z,4.98
2023-03-15T23:43:01.948Z,4.96
2023-03-15T23:45:30.108Z,4.95
2023-03-15T23:47:58.488Z,4.94
2023-03-15T23:50:27.142Z,4.96
2023-03-15T23:52:56.561Z,4.96
2023-03-15T23:55:24.907Z,4.96
2023-03-15T23:57:52.968Z,4.94
